Time;durP1;ratioP1;P1;durP2;ratioP2;P2;SDS_P1;SDS_P2;PMS_P1;PMS_P2;Temp;Humidity;BMP_temperature;BMP_pressure;BME280_temperature;BME280_humidity;BME280_pressure;Samples;Min_cycle;Max_cycle;Signal;HPM_P1;HPM_P2
2022/04/14 00:00:21;;;;;;;19.73;6.43;;;17.00;33.60;;;;;;5093130;28;20439;-67
2022/04/14 00:02:47;;;;;;;11.63;6.50;;;16.70;35.10;;;;;;5098772;28;20416;-66
2022/04/14 00:05:13;;;;;;;18.87;6.93;;;16.70;34.20;;;;;;5099797;28;20208;-66
2022/04/14 00:07:39;;;;;;;14.50;6.37;;;16.80;33.30;;;;;;5083209;28;20184;-67
2022/04/14 00:10:05;;;;;;;17.03;6.17;;;16.90;33.40;;;;;;5091573;28;20170;-66
2022/04/14 00:12:31;;;;;;;15.90;7.20;;;16.80;33.30;;;;;;5102018;28;20511;-66
2022/04/14 00:14:57;;;;;;;13.53;6.70;;;16.60;35.30;;;;;;5099807;28;20436;-66
2022/04/14 00:17:23;;;;;;;12.60;7.10;;;16.60;34.30;;;;;;5097666;28;20415;-66
2022/04/14 00:19:49;;;;;;;18.50;7.40;;;16.60;36.70;;;;;;5099152;28;20202;-66
2022/04/14 00:22:14;;;;;;;36.87;9.70;;;16.30;35.80;;;;;;5098993;28;20184;-66
2022/04/14 00:24:40;;;;;;;21.60;10.30;;;15.90;36.30;;;;;;5099958;28;20221;-66
2022/04/14 00:27:06;;;;;;;22.00;10.20;;;15.70;37.60;;;;;;5099271;28;20180;-65
2022/04/14 00:29:31;;;;;;;32.20;10.73;;;15.40;38.00;;;;;;5102019;28;20185;-66
2022/04/14 00:31:57;;;;;;;28.43;10.30;;;15.50;37.90;;;;;;5094646;28;20618;-67
2022/04/14 00:34:22;;;;;;;20.13;9.90;;;15.80;37.80;;;;;;5107232;28;20692;-66
2022/04/14 00:36:48;;;;;;;26.10;10.23;;;15.90;37.90;;;;;;5091207;28;20632;-66
2022/04/14 00:39:14;;;;;;;21.63;9.60;;;16.00;37.80;;;;;;5099384;28;20174;-66
2022/04/14 00:41:39;;;;;;;25.53;10.73;;;15.80;37.70;;;;;;5099243;28;20177;-66
2022/04/14 00:44:06;;;;;;;29.13;10.67;;;15.60;38.30;;;;;;5072996;28;20590;-67
2022/04/14 00:46:32;;;;;;;35.83;10.80;;;15.70;39.70;;;;;;5073491;28;20277;-66
2022/04/14 00:48:58;;;;;;;22.70;10.40;;;15.60;38.40;;;;;;5100694;28;20811;-66
2022/04/14 00:51:24;;;;;;;26.07;9.90;;;15.50;39.60;;;;;;5089735;28;20455;-66
2022/04/14 00:53:49;;;;;;;23.07;9.37;;;15.50;39.60;;;;;;5099152;28;20447;-67
2022/04/14 00:56:15;;;;;;;16.43;9.60;;;15.60;38.90;;;;;;5112396;28;20215;-66
2022/04/14 00:58:41;;;;;;;22.03;9.77;;;15.60;39.10;;;;;;5104058;28;20432;-66
2022/04/14 01:01:07;;;;;;;17.43;8.70;;;15.60;39.10;;;;;;5103036;28;20604;-69
2022/04/14 01:03:34;;;;;;;19.40;9.13;;;15.50;40.20;;;;;;5097679;28;20423;-66
2022/04/14 01:06:00;;;;;;;24.53;8.53;;;15.50;39.80;;;;;;5095853;28;20983;-66
2022/04/14 01:08:27;;;;;;;22.10;9.30;;;15.50;38.30;;;;;;5108725;28;20418;-66
2022/04/14 01:10:54;;;;;;;21.53;9.77;;;15.70;38.40;;;;;;5098559;28;20424;-66
2022/04/14 01:13:20;;;;;;;21.47;8.87;;;15.70;37.70;;;;;;5110160;28;20488;-65
2022/04/14 01:15:47;;;;;;;22.03;8.87;;;15.80;38.60;;;;;;5099632;28;20479;-66
2022/04/14 01:18:14;;;;;;;16.20;8.70;;;15.70;38.80;;;;;;5106453;28;20415;-65
2022/04/14 01:20:41;;;;;;;23.60;8.60;;;15.90;37.80;;;;;;5107731;28;20781;-68
2022/04/14 01:23:09;;;;;;;19.57;9.10;;;15.90;37.50;;;;;;5096560;28;20435;-66
2022/04/14 01:25:35;;;;;;;24.73;10.13;;;16.00;36.60;;;;;;5097081;28;20490;-66
2022/04/14 01:28:02;;;;;;;23.43;9.10;;;15.80;38.20;;;;;;5103212;28;20444;-67
2022/04/14 01:30:28;;;;;;;25.93;9.47;;;15.70;37.90;;;;;;5102770;28;20499;-68
2022/04/14 01:32:54;;;;;;;21.20;9.70;;;15.40;38.00;;;;;;5091727;28;20466;-69
2022/04/14 01:35:20;;;;;;;18.87;9.00;;;15.50;38.70;;;;;;5094003;28;20518;-66
2022/04/14 01:37:46;;;;;;;16.80;9.10;;;15.70;37.70;;;;;;5102097;28;20413;-66
2022/04/14 01:40:12;;;;;;;19.47;9.40;;;15.70;37.70;;;;;;5104428;28;20991;-66
2022/04/14 01:42:38;;;;;;;22.80;9.50;;;15.60;38.60;;;;;;5099479;28;20647;-66
2022/04/14 01:45:10;;;;;;;20.57;9.60;;;15.50;39.40;;;;;;5097323;28;20453;-68
2022/04/14 01:47:44;;;;;;;19.07;9.50;;;15.50;38.20;;;;;;5107210;28;20422;-66
2022/04/14 01:50:13;;;;;;;17.87;9.50;;;15.40;39.30;;;;;;5100705;28;20425;-67
2022/04/14 01:52:40;;;;;;;15.13;9.07;;;15.30;39.70;;;;;;5109328;28;20457;-68
2022/04/14 01:55:07;;;;;;;18.73;9.33;;;15.20;39.90;;;;;;5110832;28;20438;-66
2022/04/14 01:57:33;;;;;;;28.97;9.47;;;15.10;41.00;;;;;;5094805;28;20411;-68
2022/04/14 01:59:59;;;;;;;17.87;9.73;;;15.00;41.00;;;;;;5094881;28;20420;-66
2022/04/14 02:02:25;;;;;;;18.57;9.03;;;15.10;40.90;;;;;;5093822;28;20554;-67
2022/04/14 02:04:51;;;;;;;18.53;8.70;;;15.20;39.90;;;;;;5100988;28;20452;-67
2022/04/14 02:07:20;;;;;;;23.57;8.20;;;15.30;40.00;;;;;;5101775;28;20943;-66
2022/04/14 02:09:46;;;;;;;18.40;8.70;;;15.30;39.40;;;;;;5097113;28;20418;-66
2022/04/14 02:12:12;;;;;;;18.50;8.73;;;15.10;40.70;;;;;;5101938;28;20938;-66
2022/04/14 02:14:38;;;;;;;18.23;8.57;;;15.00;40.60;;;;;;5104809;28;20236;-66
2022/04/14 02:17:04;;;;;;;13.23;8.43;;;15.00;40.10;;;;;;5097236;28;20452;-68
2022/04/14 02:19:30;;;;;;;26.37;8.73;;;15.20;39.40;;;;;;5093401;28;20413;-66
2022/04/14 02:21:59;;;;;;;17.70;8.33;;;15.30;38.80;;;;;;5093844;28;20484;-66
2022/04/14 02:24:26;;;;;;;17.73;9.23;;;15.50;37.50;;;;;;5102629;28;20816;-66
2022/04/14 02:26:52;;;;;;;18.07;9.03;;;15.60;37.50;;;;;;5104170;28;20417;-66
2022/04/14 02:29:18;;;;;;;18.83;8.40;;;15.10;39.00;;;;;;5104263;28;20423;-68
2022/04/14 02:31:44;;;;;;;18.03;8.20;;;14.70;39.90;;;;;;5083945;28;20445;-68
2022/04/14 02:34:09;;;;;;;14.67;8.10;;;14.90;40.20;;;;;;5101187;28;20463;-66
2022/04/14 02:36:35;;;;;;;12.87;8.40;;;15.00;39.80;;;;;;5101948;28;20184;-66
2022/04/14 02:39:01;;;;;;;16.20;8.80;;;14.90;40.40;;;;;;5093409;28;20183;-66
2022/04/14 02:41:28;;;;;;;15.60;8.87;;;15.10;39.20;;;;;;5101138;28;20193;-67
2022/04/14 02:43:54;;;;;;;19.60;8.40;;;15.10;38.80;;;;;;5092581;28;20451;-66
2022/04/14 02:46:19;;;;;;;19.90;8.77;;;14.90;41.10;;;;;;5100703;28;20551;-66
2022/04/14 02:48:45;;;;;;;43.37;8.87;;;15.00;40.10;;;;;;5099174;28;20252;-67
2022/04/14 02:51:11;;;;;;;16.40;8.77;;;15.00;39.30;;;;;;5094232;28;20184;-66
2022/04/14 02:53:37;;;;;;;21.67;8.73;;;14.90;40.70;;;;;;5102143;28;20231;-67
2022/04/14 02:56:05;;;;;;;14.93;8.80;;;14.80;40.50;;;;;;5102822;28;20425;-67
2022/04/14 02:58:31;;;;;;;17.00;8.33;;;14.70;40.00;;;;;;5101856;28;20644;-66
2022/04/14 03:00:57;;;;;;;22.40;9.17;;;14.70;41.60;;;;;;5104027;28;20429;-66
2022/04/14 03:03:28;;;;;;;15.47;8.47;;;14.80;40.30;;;;;;5097309;28;20478;-66
2022/04/14 03:05:53;;;;;;;24.30;9.40;;;14.80;39.40;;;;;;5092532;28;20412;-66
2022/04/14 03:08:19;;;;;;;17.07;9.53;;;14.90;38.30;;;;;;5097093;28;20991;-66
2022/04/14 03:10:45;;;;;;;24.67;9.80;;;14.70;40.00;;;;;;5097633;28;20183;-66
2022/04/14 03:13:11;;;;;;;19.60;9.10;;;14.80;39.40;;;;;;5092462;28;20282;-67
2022/04/14 03:15:37;;;;;;;17.30;9.10;;;14.90;39.80;;;;;;5092263;28;20525;-68
2022/04/14 03:18:03;;;;;;;26.33;9.93;;;14.80;40.70;;;;;;5102395;28;20416;-66
2022/04/14 03:20:29;;;;;;;20.30;10.23;;;14.80;39.40;;;;;;5104564;28;20711;-66
2022/04/14 03:22:58;;;;;;;32.80;10.70;;;14.90;38.10;;;;;;5095722;28;20550;-66
2022/04/14 03:25:24;;;;;;;22.57;11.40;;;14.90;38.50;;;;;;5100662;28;20213;-66
2022/04/14 03:27:50;;;;;;;29.53;10.87;;;14.80;40.10;;;;;;5101332;28;20429;-66
2022/04/14 03:30:16;;;;;;;20.93;12.23;;;14.80;39.60;;;;;;5104130;28;20640;-67
2022/04/14 03:32:45;;;;;;;18.77;11.10;;;14.70;40.20;;;;;;5099681;28;20206;-67
2022/04/14 03:35:12;;;;;;;22.03;10.80;;;14.80;39.30;;;;;;5091094;28;20515;-66
2022/04/14 03:37:39;;;;;;;20.77;11.00;;;14.60;40.10;;;;;;5107600;28;20493;-66
2022/04/14 03:40:06;;;;;;;28.23;12.10;;;14.40;41.60;;;;;;5082689;28;20432;-66
2022/04/14 03:42:32;;;;;;;23.83;12.00;;;14.20;42.10;;;;;;5097690;28;20520;-67
2022/04/14 03:44:58;;;;;;;24.17;11.80;;;14.40;41.60;;;;;;5102451;28;20541;-68
2022/04/14 03:47:25;;;;;;;28.33;12.40;;;14.40;41.70;;;;;;5095317;28;20429;-67
2022/04/14 03:49:51;;;;;;;19.23;12.13;;;14.30;41.50;;;;;;5100539;28;20422;-66
2022/04/14 03:52:17;;;;;;;22.43;11.43;;;14.30;41.60;;;;;;5091253;28;20978;-65
2022/04/14 03:54:43;;;;;;;22.93;11.60;;;14.20;42.70;;;;;;5090832;28;20283;-66
2022/04/14 03:57:10;;;;;;;19.67;11.10;;;14.10;42.90;;;;;;5093558;28;20424;-67
2022/04/14 03:59:36;;;;;;;28.77;11.13;;;14.10;42.30;;;;;;5105290;28;20933;-67
2022/04/14 04:02:02;;;;;;;20.73;10.50;;;14.00;43.10;;;;;;5109116;28;20424;-66
2022/04/14 04:04:27;;;;;;;19.70;10.00;;;14.00;43.10;;;;;;5099097;28;20226;-66
2022/04/14 04:06:53;;;;;;;18.10;9.77;;;14.10;42.70;;;;;;5098749;28;20416;-66
2022/04/14 04:09:19;;;;;;;22.87;10.40;;;13.90;44.20;;;;;;5100818;28;20694;-66
2022/04/14 04:11:44;;;;;;;18.83;10.93;;;14.20;42.80;;;;;;5106373;28;20217;-66
2022/04/14 04:14:10;;;;;;;20.70;10.10;;;14.30;41.60;;;;;;5093186;28;20194;-65
2022/04/14 04:16:35;;;;;;;21.93;10.10;;;14.30;42.60;;;;;;5104911;28;20174;-66
2022/04/14 04:19:01;;;;;;;21.27;9.70;;;14.10;43.70;;;;;;5078808;28;20182;-66
2022/04/14 04:21:29;;;;;;;20.57;8.83;;;13.90;43.20;;;;;;5100727;28;20170;-66
2022/04/14 04:23:54;;;;;;;16.73;9.70;;;13.70;44.60;;;;;;5099268;28;20195;-67
2022/04/14 04:26:20;;;;;;;21.57;9.47;;;13.60;44.60;;;;;;5099784;28;20422;-66
2022/04/14 04:28:46;;;;;;;21.93;9.50;;;14.00;43.10;;;;;;5099483;28;20174;-66
2022/04/14 04:31:12;;;;;;;20.03;9.50;;;13.80;43.40;;;;;;5106497;28;20525;-66
2022/04/14 04:33:38;;;;;;;16.77;9.77;;;14.10;42.60;;;;;;5091181;28;20167;-66
2022/04/14 04:36:04;;;;;;;21.80;9.60;;;14.00;42.70;;;;;;5092286;28;20417;-68
2022/04/14 04:38:29;;;;;;;29.23;10.10;;;13.90;43.10;;;;;;5102317;28;20427;-66
2022/04/14 04:40:58;;;;;;;25.57;11.00;;;14.20;41.80;;;;;;5099921;28;20926;-67
2022/04/14 04:43:27;;;;;;;22.70;12.00;;;14.00;43.10;;;;;;5102161;28;20272;-66
2022/04/14 04:45:52;;;;;;;34.07;12.80;;;14.00;42.60;;;;;;5104358;28;20500;-66
2022/04/14 04:48:18;;;;;;;22.70;10.87;;;14.00;42.80;;;;;;5102639;28;20459;-66
2022/04/14 04:50:43;;;;;;;21.40;10.37;;;14.10;41.80;;;;;;5096606;28;20175;-70
2022/04/14 04:53:09;;;;;;;21.17;10.53;;;14.20;41.60;;;;;;5095182;28;20197;-68
2022/04/14 04:55:35;;;;;;;32.53;9.77;;;14.20;42.60;;;;;;5100891;28;20615;-66
2022/04/14 04:58:00;;;;;;;32.33;10.13;;;14.20;41.20;;;;;;5091495;28;20589;-66
2022/04/14 05:00:26;;;;;;;23.67;10.70;;;14.30;40.10;;;;;;5098656;28;20255;-66
2022/04/14 05:02:51;;;;;;;21.93;10.87;;;14.40;39.70;;;;;;5098959;28;20167;-66
2022/04/14 05:05:18;;;;;;;23.40;10.10;;;14.40;40.00;;;;;;5105677;28;20230;-66
2022/04/14 05:07:44;;;;;;;24.03;10.30;;;14.50;40.30;;;;;;5090382;28;20258;-66
2022/04/14 05:10:10;;;;;;;20.17;9.97;;;14.20;41.60;;;;;;5105267;28;20511;-68
2022/04/14 05:12:35;;;;;;;25.23;10.23;;;14.20;42.40;;;;;;5102185;28;20217;-66
2022/04/14 05:15:01;;;;;;;21.07;10.20;;;14.30;42.20;;;;;;5097175;28;20241;-66
2022/04/14 05:17:26;;;;;;;21.80;10.80;;;14.20;42.40;;;;;;5094459;28;20182;-66
2022/04/14 05:19:52;;;;;;;22.43;11.50;;;14.10;42.50;;;;;;5102705;28;20220;-71
2022/04/14 05:22:18;;;;;;;20.47;10.37;;;13.70;43.80;;;;;;5104019;28;20182;-71
2022/04/14 05:24:43;;;;;;;23.70;10.43;;;13.70;44.30;;;;;;5104189;28;20248;-71
2022/04/14 05:27:09;;;;;;;29.03;11.10;;;13.70;44.40;;;;;;5090686;28;20182;-68
2022/04/14 05:29:36;;;;;;;41.37;10.30;;;13.70;44.30;;;;;;5099108;28;20790;-68
2022/04/14 05:32:01;;;;;;;34.60;11.27;;;13.70;44.70;;;;;;5095549;28;20195;-69
2022/04/14 05:34:27;;;;;;;29.60;11.10;;;13.80;44.40;;;;;;5095326;28;20480;-69
2022/04/14 05:36:53;;;;;;;20.87;10.80;;;14.00;43.50;;;;;;5099362;28;20254;-69
2022/04/14 05:39:18;;;;;;;32.67;11.80;;;14.20;42.60;;;;;;5095088;28;20171;-69
2022/04/14 05:41:44;;;;;;;28.37;11.80;;;14.20;42.40;;;;;;5094732;28;20179;-69
2022/04/14 05:44:09;;;;;;;26.93;11.30;;;14.10;42.60;;;;;;5112453;28;20235;-69
2022/04/14 05:46:35;;;;;;;33.50;11.53;;;13.90;43.30;;;;;;5105537;28;20175;-70
2022/04/14 05:49:01;;;;;;;44.07;12.70;;;13.80;44.50;;;;;;5097330;28;20212;-70
2022/04/14 05:51:27;;;;;;;31.40;12.53;;;13.90;44.00;;;;;;5111252;28;20171;-71
2022/04/14 05:53:53;;;;;;;33.50;12.07;;;14.00;43.00;;;;;;5134560;22;20487;-69
2022/04/14 05:56:19;;;;;;;24.03;11.10;;;14.00;42.80;;;;;;5113983;28;20184;-68
2022/04/14 05:58:45;;;;;;;22.80;10.73;;;14.30;42.10;;;;;;5122065;27;20469;-73
2022/04/14 06:01:11;;;;;;;49.67;12.07;;;14.50;40.80;;;;;;5110734;27;20438;-75
2022/04/14 06:03:38;;;;;;;45.67;11.10;;;14.70;41.10;;;;;;5113854;28;20433;-71
2022/04/14 06:06:04;;;;;;;42.30;11.90;;;14.80;39.80;;;;;;5113959;28;20179;-71
2022/04/14 06:08:30;;;;;;;45.37;12.00;;;15.10;41.00;;;;;;5114988;27;20418;-72
2022/04/14 06:10:56;;;;;;;33.23;12.87;;;15.40;37.40;;;;;;5115376;27;20938;-70
2022/04/14 06:13:21;;;;;;;21.90;12.13;;;15.50;37.70;;;;;;5115431;27;20251;-70
2022/04/14 06:15:47;;;;;;;28.27;11.47;;;15.70;37.50;;;;;;5114420;28;20175;-73
2022/04/14 06:18:13;;;;;;;27.63;12.10;;;16.00;37.00;;;;;;5116552;27;20557;-70
2022/04/14 06:20:38;;;;;;;22.10;10.90;;;16.30;35.80;;;;;;5119484;27;20180;-70
2022/04/14 06:23:04;;;;;;;37.23;12.07;;;16.30;35.30;;;;;;5118896;27;20679;-70
2022/04/14 06:25:30;;;;;;;32.03;12.03;;;16.40;34.80;;;;;;5117070;27;20173;-70
2022/04/14 06:27:56;;;;;;;28.40;11.63;;;16.30;35.60;;;;;;5112534;28;20192;-70
2022/04/14 06:30:22;;;;;;;31.33;12.30;;;16.60;34.40;;;;;;5113948;28;20423;-69
2022/04/14 06:32:55;;;;;;;27.57;12.90;;;16.70;34.20;;;;;;5121981;27;20442;-70
2022/04/14 06:35:20;;;;;;;31.23;11.33;;;16.70;34.10;;;;;;5113968;28;20507;-69
2022/04/14 06:37:46;;;;;;;28.47;12.53;;;16.10;35.80;;;;;;5114311;27;20538;-69
2022/04/14 06:40:12;;;;;;;26.33;11.40;;;15.60;37.60;;;;;;5108384;27;20580;-71
2022/04/14 06:42:37;;;;;;;24.93;11.00;;;15.20;39.70;;;;;;5112680;27;20229;-70
2022/04/14 06:45:03;;;;;;;27.03;12.10;;;15.50;40.10;;;;;;5115843;27;20179;-70
2022/04/14 06:47:29;;;;;;;31.87;12.70;;;15.70;38.80;;;;;;5117934;27;20185;-71
2022/04/14 06:49:55;;;;;;;24.57;12.37;;;16.20;37.00;;;;;;5119511;27;20230;-71
2022/04/14 06:52:24;;;;;;;39.30;16.40;;;16.80;35.60;;;;;;5113339;27;20209;-70
2022/04/14 06:54:49;;;;;;;28.03;13.60;;;17.20;34.90;;;;;;5113018;28;20490;-70
2022/04/14 06:57:15;;;;;;;38.83;13.57;;;17.30;34.70;;;;;;5113089;28;20474;-70
2022/04/14 06:59:42;;;;;;;30.07;13.40;;;17.10;34.00;;;;;;5113852;28;20170;-70
2022/04/14 07:02:07;;;;;;;27.80;13.30;;;16.50;36.30;;;;;;5112952;28;20425;-70
2022/04/14 07:04:34;;;;;;;28.00;13.70;;;16.20;38.10;;;;;;5112635;27;20443;-70
2022/04/14 07:07:00;;;;;;;35.60;13.07;;;16.30;38.20;;;;;;5115485;27;20436;-70
2022/04/14 07:09:28;;;;;;;32.80;13.40;;;16.30;38.00;;;;;;5112996;27;20910;-70
2022/04/14 07:11:54;;;;;;;31.90;13.03;;;15.90;39.30;;;;;;5113372;27;20534;-70
2022/04/14 07:14:19;;;;;;;38.00;13.50;;;15.70;40.60;;;;;;5113139;27;20536;-70
2022/04/14 07:16:45;;;;;;;22.17;13.40;;;15.70;40.60;;;;;;5113306;27;20169;-71
2022/04/14 07:19:11;;;;;;;36.20;14.93;;;16.40;38.70;;;;;;5115352;27;20227;-71
2022/04/14 07:21:37;;;;;;;28.47;14.20;;;16.60;38.20;;;;;;5114530;27;20189;-70
2022/04/14 07:24:02;;;;;;;39.40;19.80;;;16.60;38.50;;;;;;5119896;27;20442;-70
2022/04/14 07:26:28;;;;;;;36.30;19.30;;;16.70;40.80;;;;;;5114038;27;20181;-71
2022/04/14 07:28:54;;;;;;;42.63;20.03;;;17.20;39.00;;;;;;5111800;28;20200;-70
2022/04/14 07:31:19;;;;;;;37.33;18.07;;;17.30;39.10;;;;;;5110369;27;20185;-72
2022/04/14 07:33:45;;;;;;;39.17;17.57;;;17.20;39.10;;;;;;5113545;27;20983;-72
2022/04/14 07:36:12;;;;;;;44.40;19.30;;;17.80;37.90;;;;;;5118514;27;20226;-70
2022/04/14 07:38:38;;;;;;;47.07;23.13;;;17.80;38.50;;;;;;5117446;27;20168;-70
2022/04/14 07:41:05;;;;;;;39.37;20.40;;;18.20;38.70;;;;;;5111311;27;20415;-72
2022/04/14 07:43:32;;;;;;;42.93;20.83;;;18.50;37.60;;;;;;5112830;27;20190;-71
2022/04/14 07:45:58;;;;;;;42.00;24.70;;;18.30;38.00;;;;;;5112134;27;20911;-72
2022/04/14 07:48:23;;;;;;;44.80;25.37;;;17.90;39.70;;;;;;5112813;28;20473;-71
2022/04/14 07:50:49;;;;;;;52.90;26.63;;;18.00;40.20;;;;;;5112298;28;20199;-70
2022/04/14 07:53:15;;;;;;;49.93;24.60;;;17.90;41.00;;;;;;5111848;28;20717;-69
2022/04/14 07:55:41;;;;;;;43.83;25.47;;;17.90;41.00;;;;;;5112622;28;20414;-70
2022/04/14 07:58:07;;;;;;;46.13;24.50;;;18.10;39.90;;;;;;5112641;28;20523;-69
2022/04/14 08:00:37;;;;;;;45.20;26.30;;;18.70;38.80;;;;;;5112430;28;20255;-70
2022/04/14 08:03:04;;;;;;;48.70;28.87;;;19.00;37.20;;;;;;5112065;28;20429;-71
2022/04/14 08:05:44;;;;;;;46.10;28.37;;;18.10;40.60;;;;;;5111592;28;20481;-70
2022/04/14 08:08:13;;;;;;;51.97;31.60;;;17.90;42.20;;;;;;5112066;28;20428;-70
2022/04/14 08:10:40;;;;;;;61.23;30.70;;;18.00;42.40;;;;;;5103976;28;20498;-70
2022/04/14 08:13:06;;;;;;;54.33;31.03;;;17.70;42.70;;;;;;5112084;28;20790;-71
2022/04/14 08:15:33;;;;;;;54.97;30.60;;;18.10;42.50;;;;;;5112007;28;20502;-70
2022/04/14 08:17:59;;;;;;;65.67;30.03;;;18.20;42.20;;;;;;5111876;28;20426;-70
2022/04/14 08:20:26;;;;;;;49.70;29.50;;;18.10;41.80;;;;;;5110465;28;20410;-70
2022/04/14 08:22:57;;;;;;;58.90;29.33;;;18.40;41.10;;;;;;5111678;28;20465;-70
2022/04/14 08:25:31;;;;;;;42.03;26.37;;;18.00;42.10;;;;;;5111791;28;20481;-70
2022/04/14 08:27:58;;;;;;;52.30;27.70;;;17.80;44.80;;;;;;5103538;28;20778;-71
2022/04/14 08:30:25;;;;;;;46.40;27.53;;;18.40;41.30;;;;;;5111935;28;20418;-70
2022/04/14 08:32:52;;;;;;;53.10;27.30;;;18.30;40.10;;;;;;5110905;28;20516;-71
2022/04/14 08:35:19;;;;;;;59.00;27.83;;;17.90;42.70;;;;;;5111590;28;20476;-70
2022/04/14 08:37:46;;;;;;;45.97;26.00;;;17.80;43.20;;;;;;5111809;28;20406;-70
2022/04/14 08:40:14;;;;;;;52.10;27.33;;;17.70;43.80;;;;;;5111095;28;20467;-70
2022/04/14 08:42:42;;;;;;;54.67;27.87;;;17.60;43.90;;;;;;5111466;28;20421;-70
2022/04/14 08:45:11;;;;;;;51.23;28.57;;;18.00;42.70;;;;;;5111113;28;20427;-72
2022/04/14 08:47:41;;;;;;;43.67;28.20;;;18.10;43.10;;;;;;5110258;28;20458;-70
2022/04/14 08:50:10;;;;;;;51.73;27.60;;;18.50;40.90;;;;;;5111327;28;20799;-70
2022/04/14 08:52:37;;;;;;;56.67;27.80;;;18.20;41.70;;;;;;5111182;28;21011;-71
2022/04/14 08:55:05;;;;;;;66.03;28.20;;;18.00;42.80;;;;;;5110949;28;20434;-70
2022/04/14 08:57:32;;;;;;;46.70;26.00;;;17.70;43.30;;;;;;5112440;28;20420;-70
2022/04/14 08:59:59;;;;;;;44.53;26.40;;;18.20;41.70;;;;;;5115994;28;20416;-70
2022/04/14 09:02:26;;;;;;;45.53;25.00;;;18.10;41.70;;;;;;5115751;28;20410;-70
2022/04/14 09:04:52;;;;;;;43.00;26.90;;;18.30;41.00;;;;;;5116471;28;20428;-71
2022/04/14 09:07:18;;;;;;;48.10;26.40;;;18.50;41.40;;;;;;5118242;28;20421;-70
2022/04/14 09:09:45;;;;;;;56.43;25.03;;;19.30;38.60;;;;;;5111671;28;20184;-70
2022/04/14 09:12:12;;;;;;;39.30;25.17;;;20.00;35.60;;;;;;5115165;28;20541;-70
2022/04/14 09:14:38;;;;;;;41.37;24.90;;;19.30;37.40;;;;;;5115270;28;20443;-70
2022/04/14 09:17:04;;;;;;;40.70;24.67;;;19.30;38.90;;;;;;5117412;27;20420;-69
2022/04/14 09:19:31;;;;;;;49.77;25.67;;;20.20;35.90;;;;;;5115965;27;20417;-70
2022/04/14 09:21:58;;;;;;;59.77;25.03;;;19.60;37.30;;;;;;5119066;27;20510;-71
2022/04/14 09:24:53;;;;;;;48.17;26.03;;;19.30;37.80;;;;;;5115358;28;20444;-70
2022/04/14 09:27:26;;;;;;;43.30;25.83;;;19.10;38.10;;;;;;5110168;28;20418;-71
2022/04/14 09:29:52;;;;;;;43.10;25.60;;;19.50;37.30;;;;;;5116439;27;20508;-69
2022/04/14 09:32:30;;;;;;;46.13;27.20;;;20.20;35.50;;;;;;5114637;27;20507;-70
2022/04/14 09:34:57;;;;;;;41.20;25.37;;;19.80;35.40;;;;;;5117371;27;20457;-70
2022/04/14 09:37:24;;;;;;;46.70;24.13;;;19.80;35.60;;;;;;5123245;27;20406;-69
2022/04/14 09:39:51;;;;;;;39.20;23.83;;;20.70;33.90;;;;;;5116932;27;20413;-70
2022/04/14 09:42:17;;;;;;;55.50;24.00;;;23.40;33.00;;;;;;5117511;27;20523;-70
2022/04/14 09:44:43;;;;;;;40.20;23.80;;;21.10;31.30;;;;;;5117568;27;20550;-69
2022/04/14 09:47:08;;;;;;;46.53;24.60;;;20.60;33.80;;;;;;5118291;27;20185;-70
2022/04/14 09:49:40;;;;;;;42.33;24.43;;;21.30;31.80;;;;;;5114874;28;20184;-70
2022/04/14 09:52:08;;;;;;;41.00;24.40;;;21.90;32.00;;;;;;5114303;28;20194;-70
2022/04/14 09:54:34;;;;;;;38.33;23.30;;;22.70;29.70;;;;;;5114661;28;20820;-70
2022/04/14 09:57:00;;;;;;;37.13;22.30;;;22.80;29.50;;;;;;5114393;28;20420;-70
2022/04/14 09:59:30;;;;;;;39.70;21.93;;;22.80;29.70;;;;;;5114597;28;20176;-70
2022/04/14 10:02:12;;;;;;;31.40;20.80;;;23.20;29.80;;;;;;5114357;28;20177;-70
2022/04/14 10:04:43;;;;;;;44.10;22.10;;;23.00;28.70;;;;;;5114585;28;20438;-70
2022/04/14 10:07:14;;;;;;;32.83;19.87;;;21.00;32.60;;;;;;5114179;28;20426;-70
2022/04/14 10:09:41;;;;;;;38.33;21.13;;;21.90;34.40;;;;;;5106384;28;20422;-70
2022/04/14 10:12:29;;;;;;;35.33;21.53;;;22.50;30.10;;;;;;5113613;28;20522;-70
2022/04/14 10:15:01;;;;;;;35.13;21.90;;;23.10;29.30;;;;;;5107888;28;20518;-70
2022/04/14 10:17:32;;;;;;;32.63;19.43;;;23.50;27.80;;;;;;5113595;28;20464;-70
2022/04/14 10:19:58;;;;;;;43.53;21.10;;;23.00;28.10;;;;;;5114319;28;20455;-70
2022/04/14 10:22:26;;;;;;;37.53;20.53;;;22.20;29.60;;;;;;5113827;28;20427;-71
2022/04/14 10:24:53;;;;;;;43.50;20.40;;;22.20;30.10;;;;;;5105875;28;20438;-70
2022/04/14 10:27:20;;;;;;;37.27;20.90;;;22.90;28.50;;;;;;5113747;28;20422;-70
2022/04/14 10:29:47;;;;;;;29.37;18.70;;;22.70;28.70;;;;;;5113005;28;20517;-70
2022/04/14 10:32:14;;;;;;;52.20;20.53;;;22.50;29.50;;;;;;5113651;28;20454;-70
2022/04/14 10:34:41;;;;;;;35.53;19.47;;;22.70;29.30;;;;;;5113613;28;20438;-70
2022/04/14 10:37:09;;;;;;;26.07;18.80;;;23.20;28.30;;;;;;5113837;28;20419;-70
2022/04/14 10:39:45;;;;;;;34.60;19.27;;;22.70;29.10;;;;;;5112405;28;20419;-70
2022/04/14 10:42:12;;;;;;;32.80;18.80;;;23.00;28.10;;;;;;5105775;28;20936;-70
2022/04/14 10:44:50;;;;;;;37.17;19.60;;;23.70;27.70;;;;;;5113772;28;20443;-70
2022/04/14 10:47:43;;;;;;;38.23;20.40;;;24.30;26.30;;;;;;5105564;28;20543;-71
2022/04/14 10:50:27;;;;;;;31.77;18.00;;;24.20;26.80;;;;;;5113461;28;20419;-70
2022/04/14 10:53:05;;;;;;;34.00;18.43;;;24.80;25.70;;;;;;5112708;28;20538;-70
2022/04/14 10:55:38;;;;;;;31.90;18.00;;;23.90;26.50;;;;;;5107201;28;20952;-70
2022/04/14 10:58:04;;;;;;;31.97;18.30;;;23.10;27.60;;;;;;5113097;28;20416;-70
2022/04/14 11:00:35;;;;;;;29.73;18.10;;;23.00;28.60;;;;;;5113432;28;20502;-70
2022/04/14 11:03:09;;;;;;;27.17;16.73;;;23.30;27.50;;;;;;5113027;28;20439;-71
2022/04/14 11:05:46;;;;;;;31.67;16.60;;;23.60;27.10;;;;;;5106141;28;20420;-70
2022/04/14 11:08:25;;;;;;;28.20;16.57;;;24.40;25.50;;;;;;5112898;28;20466;-70
2022/04/14 11:11:01;;;;;;;24.13;14.67;;;25.60;26.10;;;;;;5112972;28;20421;-72
2022/04/14 11:13:55;;;;;;;26.47;14.20;;;25.50;25.90;;;;;;5112548;28;20450;-70
2022/04/14 11:16:40;;;;;;;27.03;14.40;;;25.70;26.20;;;;;;5111297;28;20419;-71
2022/04/14 11:19:21;;;;;;;23.80;13.27;;;26.70;24.90;;;;;;5113089;28;20426;-71
2022/04/14 11:22:02;;;;;;;28.50;15.37;;;27.30;24.20;;;;;;5106268;28;20438;-71
2022/04/14 11:24:36;;;;;;;26.70;14.27;;;28.80;21.00;;;;;;5112062;28;20969;-72
2022/04/14 11:27:22;;;;;;;22.00;11.83;;;29.70;18.40;;;;;;5112710;28;20423;-71
2022/04/14 11:29:57;;;;;;;24.87;10.70;;;29.60;19.60;;;;;;5106036;28;20476;-71
2022/04/14 11:32:40;;;;;;;23.30;10.80;;;30.70;17.90;;;;;;5112286;28;20454;-71
2022/04/14 11:35:16;;;;;;;15.47;10.07;;;30.40;17.80;;;;;;5113214;28;20435;-71
2022/04/14 11:37:49;;;;;;;30.10;9.90;;;30.80;17.70;;;;;;5104504;28;20419;-71
2022/04/14 11:40:17;;;;;;;16.63;11.10;;;30.90;17.90;;;;;;5111982;28;20526;-71
2022/04/14 11:42:46;;;;;;;23.70;11.80;;;30.50;16.20;;;;;;5111803;28;20435;-71
2022/04/14 11:45:12;;;;;;;19.53;12.23;;;28.60;19.50;;;;;;5112564;28;20522;-72
2022/04/14 11:47:38;;;;;;;31.63;12.80;;;27.10;20.40;;;;;;5112193;28;20510;-71
2022/04/14 11:50:06;;;;;;;19.57;11.90;;;27.80;19.90;;;;;;5112189;28;20217;-71
2022/04/14 11:52:33;;;;;;;17.97;10.33;;;28.00;18.80;;;;;;5112002;28;20996;-70
2022/04/14 11:55:00;;;;;;;29.93;12.60;;;27.40;20.40;;;;;;5154922;22;21131;-77
2022/04/14 11:57:29;;;;;;;19.80;11.90;;;27.60;21.50;;;;;;5126761;27;20419;-77
2022/04/14 12:00:10;;;;;;;20.43;11.03;;;29.90;18.80;;;;;;5121802;27;20410;-76
2022/04/14 12:02:36;;;;;;;20.67;11.97;;;30.90;18.10;;;;;;5115670;28;20905;-77
2022/04/14 12:05:01;;;;;;;24.10;11.70;;;30.10;17.30;;;;;;5130164;27;20565;-77
2022/04/14 12:07:32;;;;;;;16.63;12.00;;;30.10;17.40;;;;;;5133675;27;20415;-77
2022/04/14 12:10:06;;;;;;;25.37;12.23;;;28.60;19.50;;;;;;5113563;28;20181;-78
2022/04/14 12:12:34;;;;;;;27.40;11.67;;;28.90;20.40;;;;;;5129476;27;20455;-78
2022/04/14 12:15:00;;;;;;;23.30;13.10;;;28.80;20.90;;;;;;5139954;27;20437;-77
2022/04/14 12:17:26;;;;;;;29.10;14.00;;;28.30;21.00;;;;;;5127454;27;20713;-77
2022/04/14 12:19:51;;;;;;;25.47;12.60;;;29.20;19.20;;;;;;5123242;27;20422;-79
2022/04/14 12:22:18;;;;;;;25.60;14.70;;;30.60;17.90;;;;;;5113641;27;20180;-77
2022/04/14 12:24:51;;;;;;;26.10;13.00;;;31.50;16.30;;;;;;5132078;27;20271;-78
2022/04/14 12:27:22;;;;;;;32.47;14.63;;;32.20;15.80;;;;;;5115686;27;20417;-78
2022/04/14 12:29:49;;;;;;;28.60;13.47;;;33.40;14.80;;;;;;5127355;27;20427;-77
2022/04/14 12:32:16;;;;;;;20.43;12.80;;;33.60;14.50;;;;;;5119831;27;20465;-76